sensor_id;sensor_type;location;lat;lon;timestamp;P1;durP1;ratioP1;P2;durP2;ratioP2
9409;SDS011;4744;52.576;13.568;2022-11-15T00:00:45;34.83;;;24.60;;
9409;SDS011;4744;52.576;13.568;2022-11-15T00:03:13;34.63;;;24.20;;
9409;SDS011;4744;52.576;13.568;2022-11-15T00:05:40;35.55;;;24.38;;
9409;SDS011;4744;52.576;13.568;2022-11-15T00:08:08;34.55;;;25.13;;
9409;SDS011;4744;52.576;13.568;2022-11-15T00:10:35;30.80;;;23.02;;
9409;SDS011;4744;52.576;13.568;2022-11-15T00:13:04;36.60;;;24.95;;
9409;SDS011;4744;52.576;13.568;2022-11-15T00:15:33;31.23;;;23.48;;
9409;SDS011;4744;52.576;13.568;2022-11-15T00:18:02;37.10;;;25.27;;
9409;SDS011;4744;52.576;13.568;2022-11-15T00:20:30;34.35;;;25.02;;
9409;SDS011;4744;52.576;13.568;2022-11-15T00:22:57;36.08;;;24.45;;
9409;SDS011;4744;52.576;13.568;2022-11-15T00:25:24;34.13;;;23.88;;
9409;SDS011;4744;52.576;13.568;2022-11-15T00:27:54;34.20;;;23.63;;
9409;SDS011;4744;52.576;13.568;2022-11-15T00:30:21;37.47;;;26.27;;
9409;SDS011;4744;52.576;13.568;2022-11-15T00:32:49;36.20;;;24.98;;
9409;SDS011;4744;52.576;13.568;2022-11-15T00:35:17;36.88;;;24.88;;
9409;SDS011;4744;52.576;13.568;2022-11-15T00:37:45;35.22;;;23.75;;
9409;SDS011;4744;52.576;13.568;2022-11-15T00:40:13;31.77;;;23.38;;
9409;SDS011;4744;52.576;13.568;2022-11-15T00:42:40;35.45;;;24.45;;
9409;SDS011;4744;52.576;13.568;2022-11-15T00:45:08;33.83;;;24.65;;
9409;SDS011;4744;52.576;13.568;2022-11-15T00:47:35;33.05;;;24.65;;
9409;SDS011;4744;52.576;13.568;2022-11-15T00:50:03;35.60;;;25.45;;
9409;SDS011;4744;52.576;13.568;2022-11-15T00:52:32;34.40;;;25.60;;
9409;SDS011;4744;52.576;13.568;2022-11-15T00:54:58;35.17;;;25.35;;
9409;SDS011;4744;52.576;13.568;2022-11-15T00:57:25;35.15;;;24.65;;
9409;SDS011;4744;52.576;13.568;2022-11-15T00:59:53;36.78;;;24.27;;
9409;SDS011;4744;52.576;13.568;2022-11-15T01:02:19;32.38;;;23.52;;
9409;SDS011;4744;52.576;13.568;2022-11-15T01:04:47;35.10;;;25.42;;
9409;SDS011;4744;52.576;13.568;2022-11-15T01:07:14;36.08;;;25.40;;
9409;SDS011;4744;52.576;13.568;2022-11-15T01:09:42;34.65;;;24.45;;
9409;SDS011;4744;52.576;13.568;2022-11-15T01:12:09;33.95;;;24.65;;
9409;SDS011;4744;52.576;13.568;2022-11-15T01:14:36;35.70;;;25.42;;
9409;SDS011;4744;52.576;13.568;2022-11-15T01:17:03;37.60;;;26.38;;
9409;SDS011;4744;52.576;13.568;2022-11-15T01:19:30;35.97;;;25.88;;
9409;SDS011;4744;52.576;13.568;2022-11-15T01:21:57;38.50;;;26.35;;
9409;SDS011;4744;52.576;13.568;2022-11-15T01:24:24;37.53;;;26.75;;
9409;SDS011;4744;52.576;13.568;2022-11-15T01:26:52;38.10;;;26.45;;
9409;SDS011;4744;52.576;13.568;2022-11-15T01:29:19;35.83;;;25.88;;
9409;SDS011;4744;52.576;13.568;2022-11-15T01:31:47;37.17;;;26.50;;
9409;SDS011;4744;52.576;13.568;2022-11-15T01:34:13;35.70;;;25.38;;
9409;SDS011;4744;52.576;13.568;2022-11-15T01:36:41;36.35;;;25.50;;
9409;SDS011;4744;52.576;13.568;2022-11-15T01:39:07;35.05;;;25.38;;
9409;SDS011;4744;52.576;13.568;2022-11-15T01:41:34;36.08;;;25.67;;
9409;SDS011;4744;52.576;13.568;2022-11-15T01:47:05;34.30;;;24.45;;
9409;SDS011;4744;52.576;13.568;2022-11-15T01:49:35;35.20;;;25.23;;
9409;SDS011;4744;52.576;13.568;2022-11-15T01:52:06;34.05;;;25.05;;
9409;SDS011;4744;52.576;13.568;2022-11-15T01:54:35;34.60;;;24.52;;
9409;SDS011;4744;52.576;13.568;2022-11-15T01:57:03;32.97;;;25.00;;
9409;SDS011;4744;52.576;13.568;2022-11-15T01:59:34;33.65;;;25.35;;
9409;SDS011;4744;52.576;13.568;2022-11-15T02:02:02;35.35;;;25.55;;
9409;SDS011;4744;52.576;13.568;2022-11-15T02:04:30;33.35;;;25.38;;
9409;SDS011;4744;52.576;13.568;2022-11-15T02:06:59;33.80;;;24.90;;
9409;SDS011;4744;52.576;13.568;2022-11-15T02:09:28;34.83;;;25.58;;
9409;SDS011;4744;52.576;13.568;2022-11-15T02:11:55;35.80;;;26.02;;
9409;SDS011;4744;52.576;13.568;2022-11-15T02:14:23;33.50;;;25.25;;
9409;SDS011;4744;52.576;13.568;2022-11-15T02:16:57;34.38;;;24.80;;
9409;SDS011;4744;52.576;13.568;2022-11-15T02:19:40;34.30;;;25.67;;
9409;SDS011;4744;52.576;13.568;2022-11-15T02:22:31;32.47;;;24.98;;
9409;SDS011;4744;52.576;13.568;2022-11-15T02:25:20;32.53;;;24.67;;
9409;SDS011;4744;52.576;13.568;2022-11-15T02:28:06;31.13;;;23.67;;
9409;SDS011;4744;52.576;13.568;2022-11-15T02:30:57;29.40;;;23.23;;
9409;SDS011;4744;52.576;13.568;2022-11-15T02:33:32;34.78;;;25.52;;
9409;SDS011;4744;52.576;13.568;2022-11-15T02:36:06;33.35;;;24.67;;
9409;SDS011;4744;52.576;13.568;2022-11-15T02:38:40;34.58;;;25.23;;
9409;SDS011;4744;52.576;13.568;2022-11-15T02:41:14;33.35;;;24.08;;
9409;SDS011;4744;52.576;13.568;2022-11-15T02:43:48;35.58;;;25.27;;
9409;SDS011;4744;52.576;13.568;2022-11-15T02:46:25;35.50;;;25.58;;
9409;SDS011;4744;52.576;13.568;2022-11-15T02:49:16;33.17;;;23.63;;
9409;SDS011;4744;52.576;13.568;2022-11-15T02:51:44;33.95;;;24.67;;
9409;SDS011;4744;52.576;13.568;2022-11-15T02:54:14;34.83;;;25.02;;
9409;SDS011;4744;52.576;13.568;2022-11-15T02:56:46;32.05;;;24.60;;
9409;SDS011;4744;52.576;13.568;2022-11-15T02:59:23;32.88;;;24.80;;
9409;SDS011;4744;52.576;13.568;2022-11-15T03:02:04;34.47;;;25.05;;
9409;SDS011;4744;52.576;13.568;2022-11-15T03:04:43;29.77;;;23.23;;
9409;SDS011;4744;52.576;13.568;2022-11-15T03:07:14;33.85;;;24.48;;
9409;SDS011;4744;52.576;13.568;2022-11-15T03:09:47;29.75;;;22.83;;
9409;SDS011;4744;52.576;13.568;2022-11-15T03:12:22;33.25;;;24.92;;
9409;SDS011;4744;52.576;13.568;2022-11-15T03:14:54;33.83;;;25.40;;
9409;SDS011;4744;52.576;13.568;2022-11-15T03:17:28;31.90;;;24.35;;
9409;SDS011;4744;52.576;13.568;2022-11-15T03:20:00;31.35;;;23.98;;
9409;SDS011;4744;52.576;13.568;2022-11-15T03:22:32;32.10;;;24.10;;
9409;SDS011;4744;52.576;13.568;2022-11-15T03:25:04;33.45;;;24.42;;
9409;SDS011;4744;52.576;13.568;2022-11-15T03:27:34;31.80;;;24.63;;
9409;SDS011;4744;52.576;13.568;2022-11-15T03:30:06;34.55;;;25.15;;
9409;SDS011;4744;52.576;13.568;2022-11-15T03:32:36;31.35;;;23.80;;
9409;SDS011;4744;52.576;13.568;2022-11-15T03:35:09;30.33;;;23.17;;
9409;SDS011;4744;52.576;13.568;2022-11-15T03:37:53;31.75;;;24.10;;
9409;SDS011;4744;52.576;13.568;2022-11-15T03:40:25;30.55;;;23.33;;
9409;SDS011;4744;52.576;13.568;2022-11-15T03:43:00;28.27;;;22.70;;
9409;SDS011;4744;52.576;13.568;2022-11-15T03:45:33;30.33;;;22.88;;
9409;SDS011;4744;52.576;13.568;2022-11-15T03:48:09;30.50;;;23.15;;
9409;SDS011;4744;52.576;13.568;2022-11-15T03:50:39;30.73;;;22.25;;
9409;SDS011;4744;52.576;13.568;2022-11-15T03:53:07;28.00;;;22.90;;
9409;SDS011;4744;52.576;13.568;2022-11-15T03:55:35;28.65;;;22.40;;
9409;SDS011;4744;52.576;13.568;2022-11-15T03:58:02;32.28;;;24.25;;
9409;SDS011;4744;52.576;13.568;2022-11-15T04:00:29;29.20;;;21.98;;
9409;SDS011;4744;52.576;13.568;2022-11-15T04:02:56;29.35;;;23.13;;
9409;SDS011;4744;52.576;13.568;2022-11-15T04:05:24;32.00;;;23.08;;
9409;SDS011;4744;52.576;13.568;2022-11-15T04:07:51;28.48;;;21.83;;
9409;SDS011;4744;52.576;13.568;2022-11-15T04:10:18;30.75;;;23.55;;
9409;SDS011;4744;52.576;13.568;2022-11-15T04:12:45;30.25;;;22.80;;
9409;SDS011;4744;52.576;13.568;2022-11-15T04:15:15;32.42;;;23.95;;
9409;SDS011;4744;52.576;13.568;2022-11-15T04:17:43;31.73;;;23.70;;
9409;SDS011;4744;52.576;13.568;2022-11-15T04:20:11;26.60;;;21.17;;
9409;SDS011;4744;52.576;13.568;2022-11-15T04:23:00;30.63;;;23.35;;
9409;SDS011;4744;52.576;13.568;2022-11-15T04:25:45;29.08;;;22.85;;
9409;SDS011;4744;52.576;13.568;2022-11-15T04:28:15;29.27;;;22.98;;
9409;SDS011;4744;52.576;13.568;2022-11-15T04:30:42;28.73;;;21.52;;
9409;SDS011;4744;52.576;13.568;2022-11-15T04:33:09;32.13;;;23.17;;
9409;SDS011;4744;52.576;13.568;2022-11-15T04:35:36;25.75;;;21.05;;
9409;SDS011;4744;52.576;13.568;2022-11-15T04:38:05;31.42;;;22.85;;
9409;SDS011;4744;52.576;13.568;2022-11-15T04:40:33;31.92;;;23.17;;
9409;SDS011;4744;52.576;13.568;2022-11-15T04:43:00;30.00;;;23.45;;
9409;SDS011;4744;52.576;13.568;2022-11-15T04:45:27;31.48;;;23.42;;
9409;SDS011;4744;52.576;13.568;2022-11-15T04:47:54;26.02;;;21.05;;
9409;SDS011;4744;52.576;13.568;2022-11-15T04:50:20;26.95;;;20.92;;
9409;SDS011;4744;52.576;13.568;2022-11-15T04:52:50;27.92;;;21.70;;
9409;SDS011;4744;52.576;13.568;2022-11-15T04:55:19;24.95;;;20.20;;
9409;SDS011;4744;52.576;13.568;2022-11-15T04:57:46;26.23;;;20.48;;
9409;SDS011;4744;52.576;13.568;2022-11-15T05:00:14;27.92;;;21.42;;
9409;SDS011;4744;52.576;13.568;2022-11-15T05:02:42;27.13;;;21.13;;
9409;SDS011;4744;52.576;13.568;2022-11-15T05:05:27;29.27;;;21.77;;
9409;SDS011;4744;52.576;13.568;2022-11-15T05:07:53;27.48;;;21.67;;
9409;SDS011;4744;52.576;13.568;2022-11-15T05:10:22;27.77;;;21.70;;
9409;SDS011;4744;52.576;13.568;2022-11-15T05:12:49;26.60;;;21.10;;
9409;SDS011;4744;52.576;13.568;2022-11-15T05:15:16;30.10;;;23.92;;
9409;SDS011;4744;52.576;13.568;2022-11-15T05:17:43;30.45;;;23.60;;
9409;SDS011;4744;52.576;13.568;2022-11-15T05:20:10;26.60;;;22.15;;
9409;SDS011;4744;52.576;13.568;2022-11-15T05:22:37;28.52;;;22.42;;
9409;SDS011;4744;52.576;13.568;2022-11-15T05:25:05;26.70;;;21.00;;
9409;SDS011;4744;52.576;13.568;2022-11-15T05:27:34;27.67;;;20.38;;
9409;SDS011;4744;52.576;13.568;2022-11-15T05:30:01;28.27;;;20.63;;
9409;SDS011;4744;52.576;13.568;2022-11-15T05:32:28;25.73;;;21.40;;
9409;SDS011;4744;52.576;13.568;2022-11-15T05:34:55;30.70;;;23.52;;
9409;SDS011;4744;52.576;13.568;2022-11-15T05:37:22;28.20;;;22.13;;
9409;SDS011;4744;52.576;13.568;2022-11-15T05:39:49;29.00;;;23.10;;
9409;SDS011;4744;52.576;13.568;2022-11-15T05:42:16;28.40;;;21.48;;
9409;SDS011;4744;52.576;13.568;2022-11-15T05:44:47;27.33;;;20.05;;
9409;SDS011;4744;52.576;13.568;2022-11-15T05:47:16;27.48;;;21.60;;
9409;SDS011;4744;52.576;13.568;2022-11-15T05:49:45;25.42;;;19.85;;
9409;SDS011;4744;52.576;13.568;2022-11-15T05:52:17;29.20;;;22.95;;
9409;SDS011;4744;52.576;13.568;2022-11-15T05:54:48;28.75;;;22.48;;
9409;SDS011;4744;52.576;13.568;2022-11-15T05:57:16;26.90;;;21.90;;
9409;SDS011;4744;52.576;13.568;2022-11-15T05:59:45;26.30;;;21.10;;
9409;SDS011;4744;52.576;13.568;2022-11-15T06:02:11;26.17;;;20.77;;
9409;SDS011;4744;52.576;13.568;2022-11-15T06:04:38;26.48;;;20.27;;
9409;SDS011;4744;52.576;13.568;2022-11-15T06:07:05;25.52;;;20.80;;
9409;SDS011;4744;52.576;13.568;2022-11-15T06:09:32;27.50;;;21.50;;
9409;SDS011;4744;52.576;13.568;2022-11-15T06:11:59;26.90;;;21.75;;
9409;SDS011;4744;52.576;13.568;2022-11-15T06:14:26;26.83;;;21.42;;
9409;SDS011;4744;52.576;13.568;2022-11-15T06:16:55;27.58;;;21.48;;
9409;SDS011;4744;52.576;13.568;2022-11-15T06:19:21;24.10;;;20.42;;
9409;SDS011;4744;52.576;13.568;2022-11-15T06:21:48;26.33;;;20.52;;
9409;SDS011;4744;52.576;13.568;2022-11-15T06:24:15;26.63;;;20.52;;
9409;SDS011;4744;52.576;13.568;2022-11-15T06:26:42;26.70;;;20.98;;
9409;SDS011;4744;52.576;13.568;2022-11-15T06:29:09;25.05;;;20.88;;
9409;SDS011;4744;52.576;13.568;2022-11-15T06:31:36;24.30;;;19.13;;
9409;SDS011;4744;52.576;13.568;2022-11-15T06:34:04;24.75;;;20.15;;
9409;SDS011;4744;52.576;13.568;2022-11-15T06:36:33;25.60;;;20.13;;
9409;SDS011;4744;52.576;13.568;2022-11-15T06:39:00;27.42;;;20.73;;
9409;SDS011;4744;52.576;13.568;2022-11-15T06:41:27;28.42;;;22.17;;
9409;SDS011;4744;52.576;13.568;2022-11-15T06:43:54;24.63;;;19.85;;
9409;SDS011;4744;52.576;13.568;2022-11-15T06:46:22;28.50;;;21.85;;
9409;SDS011;4744;52.576;13.568;2022-11-15T06:48:50;25.38;;;20.65;;
9409;SDS011;4744;52.576;13.568;2022-11-15T06:51:18;24.52;;;19.60;;
9409;SDS011;4744;52.576;13.568;2022-11-15T06:53:46;26.48;;;20.92;;
9409;SDS011;4744;52.576;13.568;2022-11-15T06:56:13;23.25;;;19.10;;
9409;SDS011;4744;52.576;13.568;2022-11-15T06:58:39;29.15;;;22.63;;
9409;SDS011;4744;52.576;13.568;2022-11-15T07:01:07;29.67;;;22.45;;
9409;SDS011;4744;52.576;13.568;2022-11-15T07:03:35;28.60;;;22.48;;
9409;SDS011;4744;52.576;13.568;2022-11-15T07:06:03;25.75;;;21.40;;
9409;SDS011;4744;52.576;13.568;2022-11-15T07:08:32;31.88;;;23.27;;
9409;SDS011;4744;52.576;13.568;2022-11-15T07:11:00;28.98;;;22.90;;
9409;SDS011;4744;52.576;13.568;2022-11-15T07:13:29;28.80;;;21.88;;
9409;SDS011;4744;52.576;13.568;2022-11-15T07:16:01;24.40;;;20.75;;
9409;SDS011;4744;52.576;13.568;2022-11-15T07:18:28;24.38;;;20.17;;
9409;SDS011;4744;52.576;13.568;2022-11-15T07:20:59;25.00;;;20.60;;
9409;SDS011;4744;52.576;13.568;2022-11-15T07:23:27;25.75;;;20.38;;
9409;SDS011;4744;52.576;13.568;2022-11-15T07:25:55;24.88;;;20.20;;
9409;SDS011;4744;52.576;13.568;2022-11-15T07:28:22;28.33;;;22.27;;
9409;SDS011;4744;52.576;13.568;2022-11-15T07:30:50;26.90;;;20.70;;
9409;SDS011;4744;52.576;13.568;2022-11-15T07:33:17;26.27;;;20.33;;
9409;SDS011;4744;52.576;13.568;2022-11-15T07:35:44;28.42;;;23.10;;
9409;SDS011;4744;52.576;13.568;2022-11-15T07:38:14;28.02;;;22.50;;
9409;SDS011;4744;52.576;13.568;2022-11-15T07:40:44;29.27;;;23.65;;
9409;SDS011;4744;52.576;13.568;2022-11-15T07:43:13;28.80;;;23.40;;
9409;SDS011;4744;52.576;13.568;2022-11-15T07:45:41;27.17;;;21.35;;
9409;SDS011;4744;52.576;13.568;2022-11-15T07:48:08;28.70;;;23.05;;
9409;SDS011;4744;52.576;13.568;2022-11-15T07:50:35;28.42;;;22.38;;
9409;SDS011;4744;52.576;13.568;2022-11-15T07:53:02;28.83;;;23.50;;
9409;SDS011;4744;52.576;13.568;2022-11-15T07:55:29;31.40;;;24.95;;
9409;SDS011;4744;52.576;13.568;2022-11-15T07:58:00;31.50;;;24.00;;
9409;SDS011;4744;52.576;13.568;2022-11-15T08:00:29;31.48;;;24.48;;
9409;SDS011;4744;52.576;13.568;2022-11-15T08:03:04;29.65;;;23.95;;
9409;SDS011;4744;52.576;13.568;2022-11-15T08:05:32;30.70;;;24.13;;
9409;SDS011;4744;52.576;13.568;2022-11-15T08:08:00;31.13;;;24.05;;
9409;SDS011;4744;52.576;13.568;2022-11-15T08:10:27;32.28;;;23.90;;
9409;SDS011;4744;52.576;13.568;2022-11-15T08:12:58;33.53;;;25.55;;
9409;SDS011;4744;52.576;13.568;2022-11-15T08:15:25;31.60;;;24.50;;
9409;SDS011;4744;52.576;13.568;2022-11-15T08:17:54;31.95;;;25.20;;
9409;SDS011;4744;52.576;13.568;2022-11-15T08:20:22;30.80;;;25.88;;
9409;SDS011;4744;52.576;13.568;2022-11-15T08:22:49;27.98;;;24.30;;
9409;SDS011;4744;52.576;13.568;2022-11-15T08:25:16;24.10;;;21.42;;
9409;SDS011;4744;52.576;13.568;2022-11-15T08:27:43;21.95;;;19.50;;
9409;SDS011;4744;52.576;13.568;2022-11-15T08:30:10;20.60;;;18.40;;
9409;SDS011;4744;52.576;13.568;2022-11-15T08:32:38;19.00;;;16.85;;
9409;SDS011;4744;52.576;13.568;2022-11-15T08:35:07;17.00;;;15.30;;
9409;SDS011;4744;52.576;13.568;2022-11-15T08:37:34;16.95;;;15.27;;
9409;SDS011;4744;52.576;13.568;2022-11-15T08:40:01;16.58;;;14.88;;
9409;SDS011;4744;52.576;13.568;2022-11-15T08:42:28;18.92;;;16.13;;
9409;SDS011;4744;52.576;13.568;2022-11-15T08:44:55;17.85;;;16.02;;
9409;SDS011;4744;52.576;13.568;2022-11-15T08:47:22;18.85;;;16.92;;
9409;SDS011;4744;52.576;13.568;2022-11-15T08:49:49;17.95;;;16.15;;
9409;SDS011;4744;52.576;13.568;2022-11-15T08:52:18;27.10;;;22.83;;
9409;SDS011;4744;52.576;13.568;2022-11-15T08:54:45;24.90;;;21.88;;
9409;SDS011;4744;52.576;13.568;2022-11-15T08:59:06;25.20;;;20.50;;
9409;SDS011;4744;52.576;13.568;2022-11-15T09:01:33;20.70;;;18.50;;
9409;SDS011;4744;52.576;13.568;2022-11-15T09:04:00;20.70;;;17.17;;
9409;SDS011;4744;52.576;13.568;2022-11-15T09:06:28;19.88;;;17.75;;
9409;SDS011;4744;52.576;13.568;2022-11-15T09:08:55;18.50;;;16.35;;
9409;SDS011;4744;52.576;13.568;2022-11-15T09:11:23;17.50;;;15.50;;
9409;SDS011;4744;52.576;13.568;2022-11-15T09:13:49;16.27;;;14.35;;
9409;SDS011;4744;52.576;13.568;2022-11-15T09:16:18;16.30;;;14.68;;
9409;SDS011;4744;52.576;13.568;2022-11-15T09:18:45;16.95;;;15.25;;
9409;SDS011;4744;52.576;13.568;2022-11-15T09:21:12;16.85;;;15.15;;
9409;SDS011;4744;52.576;13.568;2022-11-15T09:23:39;13.93;;;12.63;;
9409;SDS011;4744;52.576;13.568;2022-11-15T09:26:06;15.35;;;13.85;;
9409;SDS011;4744;52.576;13.568;2022-11-15T09:28:33;14.45;;;13.05;;
9409;SDS011;4744;52.576;13.568;2022-11-15T09:31:02;15.23;;;13.80;;
9409;SDS011;4744;52.576;13.568;2022-11-15T09:33:32;13.35;;;12.13;;
9409;SDS011;4744;52.576;13.568;2022-11-15T09:36:00;17.00;;;15.20;;
9409;SDS011;4744;52.576;13.568;2022-11-15T09:38:27;16.88;;;15.18;;
9409;SDS011;4744;52.576;13.568;2022-11-15T09:40:58;17.02;;;14.95;;
9409;SDS011;4744;52.576;13.568;2022-11-15T09:43:54;15.48;;;13.88;;
9409;SDS011;4744;52.576;13.568;2022-11-15T09:46:28;17.02;;;15.32;;
9409;SDS011;4744;52.576;13.568;2022-11-15T09:49:06;16.88;;;15.05;;
9409;SDS011;4744;52.576;13.568;2022-11-15T09:51:35;16.30;;;14.60;;
9409;SDS011;4744;52.576;13.568;2022-11-15T09:54:13;18.00;;;16.20;;
9409;SDS011;4744;52.576;13.568;2022-11-15T09:56:48;17.40;;;15.60;;
9409;SDS011;4744;52.576;13.568;2022-11-15T09:59:26;17.25;;;15.40;;
9409;SDS011;4744;52.576;13.568;2022-11-15T10:02:12;17.55;;;15.73;;
9409;SDS011;4744;52.576;13.568;2022-11-15T10:04:50;17.45;;;15.15;;
9409;SDS011;4744;52.576;13.568;2022-11-15T10:07:18;18.98;;;15.65;;
9409;SDS011;4744;52.576;13.568;2022-11-15T10:09:51;16.55;;;14.75;;
9409;SDS011;4744;52.576;13.568;2022-11-15T10:12:22;17.70;;;15.82;;
9409;SDS011;4744;52.576;13.568;2022-11-15T10:14:50;18.88;;;16.42;;
9409;SDS011;4744;52.576;13.568;2022-11-15T10:17:30;17.15;;;15.45;;
9409;SDS011;4744;52.576;13.568;2022-11-15T10:20:32;18.05;;;16.13;;
9409;SDS011;4744;52.576;13.568;2022-11-15T10:23:06;18.02;;;16.08;;
9409;SDS011;4744;52.576;13.568;2022-11-15T10:25:39;16.92;;;15.25;;
9409;SDS011;4744;52.576;13.568;2022-11-15T10:28:09;19.85;;;17.00;;
9409;SDS011;4744;52.576;13.568;2022-11-15T10:30:40;16.80;;;15.00;;
9409;SDS011;4744;52.576;13.568;2022-11-15T10:33:10;16.70;;;15.00;;
9409;SDS011;4744;52.576;13.568;2022-11-15T10:35:46;16.38;;;14.68;;
9409;SDS011;4744;52.576;13.568;2022-11-15T10:38:14;16.85;;;15.10;;
9409;SDS011;4744;52.576;13.568;2022-11-15T10:40:41;17.30;;;15.50;;
9409;SDS011;4744;52.576;13.568;2022-11-15T10:43:14;15.95;;;14.25;;
9409;SDS011;4744;52.576;13.568;2022-11-15T10:45:43;15.13;;;13.63;;
9409;SDS011;4744;52.576;13.568;2022-11-15T10:48:21;15.65;;;14.05;;
9409;SDS011;4744;52.576;13.568;2022-11-15T10:50:51;15.35;;;13.75;;
9409;SDS011;4744;52.576;13.568;2022-11-15T10:53:22;15.30;;;13.70;;
9409;SDS011;4744;52.576;13.568;2022-11-15T10:56:00;16.63;;;14.93;;
9409;SDS011;4744;52.576;13.568;2022-11-15T10:58:35;16.38;;;14.48;;
9409;SDS011;4744;52.576;13.568;2022-11-15T11:01:14;17.50;;;14.35;;
9409;SDS011;4744;52.576;13.568;2022-11-15T11:03:43;15.75;;;14.25;;
9409;SDS011;4744;52.576;13.568;2022-11-15T11:06:13;14.90;;;12.82;;
9409;SDS011;4744;52.576;13.568;2022-11-15T11:08:43;14.43;;;13.02;;
9409;SDS011;4744;52.576;13.568;2022-11-15T11:11:21;16.08;;;14.38;;
9409;SDS011;4744;52.576;13.568;2022-11-15T11:13:48;15.73;;;14.23;;
9409;SDS011;4744;52.576;13.568;2022-11-15T11:16:33;16.08;;;14.40;;
9409;SDS011;4744;52.576;13.568;2022-11-15T11:19:14;15.38;;;13.88;;
9409;SDS011;4744;52.576;13.568;2022-11-15T11:21:54;14.40;;;13.00;;
9409;SDS011;4744;52.576;13.568;2022-11-15T11:24:29;13.88;;;12.48;;
9409;SDS011;4744;52.576;13.568;2022-11-15T11:27:03;14.45;;;12.95;;
9409;SDS011;4744;52.576;13.568;2022-11-15T11:29:43;13.88;;;12.35;;
9409;SDS011;4744;52.576;13.568;2022-11-15T11:32:26;15.18;;;13.57;;
9409;SDS011;4744;52.576;13.568;2022-11-15T11:35:06;14.52;;;12.23;;
9409;SDS011;4744;52.576;13.568;2022-11-15T11:37:42;13.90;;;12.50;;
9409;SDS011;4744;52.576;13.568;2022-11-15T11:40:28;16.42;;;14.68;;
9409;SDS011;4744;52.576;13.568;2022-11-15T11:42:58;15.02;;;13.52;;
9409;SDS011;4744;52.576;13.568;2022-11-15T11:45:43;14.57;;;12.80;;
9409;SDS011;4744;52.576;13.568;2022-11-15T11:48:22;15.40;;;13.80;;
9409;SDS011;4744;52.576;13.568;2022-11-15T11:51:04;15.63;;;14.13;;
9409;SDS011;4744;52.576;13.568;2022-11-15T11:53:39;15.90;;;13.35;;
9409;SDS011;4744;52.576;13.568;2022-11-15T11:56:11;14.02;;;12.55;;
9409;SDS011;4744;52.576;13.568;2022-11-15T11:58:45;12.88;;;11.30;;
9409;SDS011;4744;52.576;13.568;2022-11-15T12:01:14;14.93;;;13.43;;
9409;SDS011;4744;52.576;13.568;2022-11-15T12:03:49;16.20;;;14.25;;
9409;SDS011;4744;52.576;13.568;2022-11-15T12:06:24;13.40;;;12.05;;
9409;SDS011;4744;52.576;13.568;2022-11-15T12:09:00;12.88;;;11.57;;
9409;SDS011;4744;52.576;13.568;2022-11-15T12:11:35;11.85;;;10.65;;
9409;SDS011;4744;52.576;13.568;2022-11-15T12:14:09;15.80;;;14.00;;
9409;SDS011;4744;52.576;13.568;2022-11-15T12:16:42;14.15;;;12.65;;
9409;SDS011;4744;52.576;13.568;2022-11-15T12:19:09;15.45;;;13.73;;
9409;SDS011;4744;52.576;13.568;2022-11-15T12:21:38;14.73;;;13.18;;
9409;SDS011;4744;52.576;13.568;2022-11-15T12:24:13;15.38;;;13.05;;
9409;SDS011;4744;52.576;13.568;2022-11-15T12:26:46;14.13;;;12.73;;
9409;SDS011;4744;52.576;13.568;2022-11-15T12:29:19;13.88;;;12.48;;
9409;SDS011;4744;52.576;13.568;2022-11-15T12:31:52;15.25;;;13.65;;
9409;SDS011;4744;52.576;13.568;2022-11-15T12:34:43;14.50;;;13.00;;
9409;SDS011;4744;52.576;13.568;2022-11-15T12:43:32;12.73;;;11.43;;
9409;SDS011;4744;52.576;13.568;2022-11-15T12:46:10;12.98;;;11.68;;
9409;SDS011;4744;52.576;13.568;2022-11-15T12:48:46;11.48;;;10.48;;
9409;SDS011;4744;52.576;13.568;2022-11-15T12:51:16;10.85;;;9.85;;
9409;SDS011;4744;52.576;13.568;2022-11-15T12:53:43;13.98;;;12.48;;
9409;SDS011;4744;52.576;13.568;2022-11-15T12:56:21;13.40;;;11.23;;
9409;SDS011;4744;52.576;13.568;2022-11-15T12:58:52;11.82;;;10.63;;
9409;SDS011;4744;52.576;13.568;2022-11-15T13:04:21;12.77;;;10.82;;
9409;SDS011;4744;52.576;13.568;2022-11-15T13:06:54;12.02;;;10.77;;
9409;SDS011;4744;52.576;13.568;2022-11-15T13:18:30;11.50;;;10.40;;
9409;SDS011;4744;52.576;13.568;2022-11-15T13:21:00;11.43;;;10.32;;
9409;SDS011;4744;52.576;13.568;2022-11-15T13:23:51;11.65;;;10.45;;
9409;SDS011;4744;52.576;13.568;2022-11-15T13:26:19;15.57;;;13.73;;
9409;SDS011;4744;52.576;13.568;2022-11-15T13:28:48;11.95;;;10.82;;
9409;SDS011;4744;52.576;13.568;2022-11-15T13:31:24;13.05;;;11.15;;
9409;SDS011;4744;52.576;13.568;2022-11-15T13:33:56;11.63;;;10.43;;
9409;SDS011;4744;52.576;13.568;2022-11-15T13:36:27;12.55;;;10.90;;
9409;SDS011;4744;52.576;13.568;2022-11-15T13:38:58;12.73;;;10.70;;
9409;SDS011;4744;52.576;13.568;2022-11-15T13:41:28;10.88;;;9.85;;
9409;SDS011;4744;52.576;13.568;2022-11-15T13:43:57;12.68;;;11.48;;
9409;SDS011;4744;52.576;13.568;2022-11-15T13:46:25;10.80;;;9.68;;
9409;SDS011;4744;52.576;13.568;2022-11-15T13:48:55;13.10;;;11.80;;
9409;SDS011;4744;52.576;13.568;2022-11-15T13:51:25;12.82;;;11.55;;
9409;SDS011;4744;52.576;13.568;2022-11-15T13:53:57;12.77;;;11.48;;
9409;SDS011;4744;52.576;13.568;2022-11-15T13:56:26;13.40;;;12.10;;
9409;SDS011;4744;52.576;13.568;2022-11-15T13:58:55;12.20;;;11.00;;
9409;SDS011;4744;52.576;13.568;2022-11-15T14:01:23;10.52;;;9.57;;
9409;SDS011;4744;52.576;13.568;2022-11-15T14:03:54;12.23;;;11.02;;
9409;SDS011;4744;52.576;13.568;2022-11-15T14:06:23;15.23;;;12.82;;
9409;SDS011;4744;52.576;13.568;2022-11-15T14:08:59;12.40;;;11.10;;
9409;SDS011;4744;52.576;13.568;2022-11-15T14:11:48;13.43;;;11.00;;
9409;SDS011;4744;52.576;13.568;2022-11-15T14:14:16;12.52;;;11.32;;
9409;SDS011;4744;52.576;13.568;2022-11-15T14:16:49;13.02;;;11.45;;
9409;SDS011;4744;52.576;13.568;2022-11-15T14:19:36;13.00;;;11.60;;
9409;SDS011;4744;52.576;13.568;2022-11-15T14:22:16;12.90;;;11.13;;
9409;SDS011;4744;52.576;13.568;2022-11-15T14:24:47;10.52;;;9.52;;
9409;SDS011;4744;52.576;13.568;2022-11-15T14:27:29;10.45;;;9.48;;
9409;SDS011;4744;52.576;13.568;2022-11-15T14:29:56;11.63;;;10.45;;
9409;SDS011;4744;52.576;13.568;2022-11-15T14:32:25;10.18;;;9.27;;
9409;SDS011;4744;52.576;13.568;2022-11-15T14:34:54;11.05;;;9.95;;
9409;SDS011;4744;52.576;13.568;2022-11-15T14:37:23;11.45;;;10.23;;
9409;SDS011;4744;52.576;13.568;2022-11-15T14:39:51;11.90;;;10.57;;
9409;SDS011;4744;52.576;13.568;2022-11-15T14:42:19;11.18;;;10.07;;
9409;SDS011;4744;52.576;13.568;2022-11-15T14:44:47;10.75;;;9.80;;
9409;SDS011;4744;52.576;13.568;2022-11-15T14:47:14;11.30;;;10.13;;
9409;SDS011;4744;52.576;13.568;2022-11-15T14:49:43;11.25;;;10.15;;
9409;SDS011;4744;52.576;13.568;2022-11-15T14:52:24;11.20;;;10.10;;
9409;SDS011;4744;52.576;13.568;2022-11-15T14:54:53;10.82;;;9.82;;
9409;SDS011;4744;52.576;13.568;2022-11-15T14:57:21;11.40;;;10.30;;
9409;SDS011;4744;52.576;13.568;2022-11-15T14:59:48;11.18;;;10.07;;
9409;SDS011;4744;52.576;13.568;2022-11-15T15:02:16;11.98;;;10.60;;
9409;SDS011;4744;52.576;13.568;2022-11-15T15:04:46;11.57;;;10.48;;
9409;SDS011;4744;52.576;13.568;2022-11-15T15:07:13;14.80;;;12.25;;
9409;SDS011;4744;52.576;13.568;2022-11-15T15:09:40;13.27;;;11.95;;
9409;SDS011;4744;52.576;13.568;2022-11-15T15:12:15;12.50;;;11.30;;
9409;SDS011;4744;52.576;13.568;2022-11-15T15:14:43;11.52;;;10.43;;
9409;SDS011;4744;52.576;13.568;2022-11-15T15:17:10;11.15;;;10.05;;
9409;SDS011;4744;52.576;13.568;2022-11-15T15:19:37;11.60;;;10.40;;